sensor_id;sensor_type;location;lat;lon;timestamp;pressure;altitude;pressure_sealevel;temperature;humidity
13080;BME280;6606;49.154;9.280;2024-03-29T00:00:21;97926.97;;;9.02;52.63
13080;BME280;6606;49.154;9.280;2024-03-29T00:03:01;97918.16;;;9.01;52.79
13080;BME280;6606;49.154;9.280;2024-03-29T00:05:42;97912.59;;;9.04;52.01
13080;BME280;6606;49.154;9.280;2024-03-29T00:08:23;97895.66;;;9.18;51.39
13080;BME280;6606;49.154;9.280;2024-03-29T00:11:05;97905.53;;;9.27;51.09
13080;BME280;6606;49.154;9.280;2024-03-29T00:13:46;97893.13;;;9.39;50.50
13080;BME280;6606;49.154;9.280;2024-03-29T00:16:27;97892.75;;;9.33;51.46
13080;BME280;6606;49.154;9.280;2024-03-29T00:19:08;97888.19;;;9.35;50.72
13080;BME280;6606;49.154;9.280;2024-03-29T00:21:48;97880.00;;;9.26;51.00
13080;BME280;6606;49.154;9.280;2024-03-29T00:24:29;97882.16;;;9.33;50.93
13080;BME280;6606;49.154;9.280;2024-03-29T00:27:11;97871.19;;;9.48;50.18
13080;BME280;6606;49.154;9.280;2024-03-29T00:29:52;97866.72;;;9.60;49.61
13080;BME280;6606;49.154;9.280;2024-03-29T00:32:33;97861.66;;;9.57;50.55
13080;BME280;6606;49.154;9.280;2024-03-29T00:35:14;97845.06;;;9.55;50.56
13080;BME280;6606;49.154;9.280;2024-03-29T00:37:55;97843.00;;;9.47;51.09
13080;BME280;6606;49.154;9.280;2024-03-29T00:40:35;97842.16;;;9.58;50.70
13080;BME280;6606;49.154;9.280;2024-03-29T00:43:18;97840.44;;;9.68;50.14
13080;BME280;6606;49.154;9.280;2024-03-29T00:45:59;97847.91;;;9.63;50.52
13080;BME280;6606;49.154;9.280;2024-03-29T00:48:40;97852.00;;;9.67;50.66
13080;BME280;6606;49.154;9.280;2024-03-29T00:51:20;97860.56;;;9.71;50.53
13080;BME280;6606;49.154;9.280;2024-03-29T00:54:01;97851.09;;;9.78;50.35
13080;BME280;6606;49.154;9.280;2024-03-29T00:56:42;97840.03;;;9.84;50.53
13080;BME280;6606;49.154;9.280;2024-03-29T00:59:24;97827.41;;;9.77;50.86
13080;BME280;6606;49.154;9.280;2024-03-29T01:02:05;97834.56;;;9.86;50.30
13080;BME280;6606;49.154;9.280;2024-03-29T01:04:45;97828.69;;;9.82;50.72
13080;BME280;6606;49.154;9.280;2024-03-29T01:07:26;97822.75;;;9.90;50.28
13080;BME280;6606;49.154;9.280;2024-03-29T01:10:08;97810.34;;;9.90;50.50
13080;BME280;6606;49.154;9.280;2024-03-29T01:12:49;97805.66;;;9.83;51.47
13080;BME280;6606;49.154;9.280;2024-03-29T01:15:31;97798.75;;;9.91;50.17
13080;BME280;6606;49.154;9.280;2024-03-29T01:18:12;97791.88;;;10.00;50.29
13080;BME280;6606;49.154;9.280;2024-03-29T01:20:53;97779.25;;;9.92;51.33
13080;BME280;6606;49.154;9.280;2024-03-29T01:23:33;97786.78;;;9.76;52.30
13080;BME280;6606;49.154;9.280;2024-03-29T01:26:14;97817.38;;;9.80;51.62
13080;BME280;6606;49.154;9.280;2024-03-29T01:28:55;97815.69;;;9.79;51.48
13080;BME280;6606;49.154;9.280;2024-03-29T01:31:37;97815.56;;;9.81;51.29
13080;BME280;6606;49.154;9.280;2024-03-29T01:34:18;97797.00;;;9.81;52.20
13080;BME280;6606;49.154;9.280;2024-03-29T01:36:59;97803.16;;;10.02;50.76
13080;BME280;6606;49.154;9.280;2024-03-29T01:39:39;97798.72;;;10.03;51.14
13080;BME280;6606;49.154;9.280;2024-03-29T01:42:20;97798.91;;;10.11;50.36
13080;BME280;6606;49.154;9.280;2024-03-29T01:45:01;97805.06;;;10.11;49.95
13080;BME280;6606;49.154;9.280;2024-03-29T01:47:44;97798.47;;;10.27;49.40
13080;BME280;6606;49.154;9.280;2024-03-29T01:50:26;97791.63;;;10.24;49.60
13080;BME280;6606;49.154;9.280;2024-03-29T01:53:08;97785.66;;;10.32;49.25
13080;BME280;6606;49.154;9.280;2024-03-29T01:55:50;97788.03;;;10.35;49.29
13080;BME280;6606;49.154;9.280;2024-03-29T01:58:32;97779.94;;;10.36;49.86
13080;BME280;6606;49.154;9.280;2024-03-29T02:01:15;97766.38;;;10.30;50.27
13080;BME280;6606;49.154;9.280;2024-03-29T02:03:59;97745.53;;;10.25;50.02
13080;BME280;6606;49.154;9.280;2024-03-29T02:06:41;97746.44;;;10.14;50.79
13080;BME280;6606;49.154;9.280;2024-03-29T02:09:23;97752.00;;;10.11;51.34
13080;BME280;6606;49.154;9.280;2024-03-29T02:12:06;97760.69;;;10.13;50.91
13080;BME280;6606;49.154;9.280;2024-03-29T02:14:47;97759.91;;;10.23;50.10
13080;BME280;6606;49.154;9.280;2024-03-29T02:17:29;97759.63;;;10.26;50.01
13080;BME280;6606;49.154;9.280;2024-03-29T02:20:12;97758.41;;;10.30;49.02
13080;BME280;6606;49.154;9.280;2024-03-29T02:23:00;97756.25;;;10.45;48.90
13080;BME280;6606;49.154;9.280;2024-03-29T02:25:44;97747.44;;;10.44;48.90
13080;BME280;6606;49.154;9.280;2024-03-29T02:28:26;97751.25;;;10.51;48.39
13080;BME280;6606;49.154;9.280;2024-03-29T02:31:08;97758.72;;;10.57;47.75
13080;BME280;6606;49.154;9.280;2024-03-29T02:33:50;97765.19;;;10.65;47.44
13080;BME280;6606;49.154;9.280;2024-03-29T02:36:31;97774.13;;;10.64;47.22
13080;BME280;6606;49.154;9.280;2024-03-29T02:39:13;97775.97;;;10.73;47.04
13080;BME280;6606;49.154;9.280;2024-03-29T02:41:56;97777.34;;;10.67;48.02
13080;BME280;6606;49.154;9.280;2024-03-29T02:44:38;97773.75;;;10.78;46.62
13080;BME280;6606;49.154;9.280;2024-03-29T02:47:19;97753.63;;;10.75;46.69
13080;BME280;6606;49.154;9.280;2024-03-29T02:50:01;97764.91;;;10.68;46.73
13080;BME280;6606;49.154;9.280;2024-03-29T02:52:42;97766.34;;;10.72;46.84
13080;BME280;6606;49.154;9.280;2024-03-29T02:55:24;97772.75;;;10.69;46.48
13080;BME280;6606;49.154;9.280;2024-03-29T02:58:06;97785.09;;;10.80;46.19
13080;BME280;6606;49.154;9.280;2024-03-29T03:00:47;97784.81;;;10.83;46.62
13080;BME280;6606;49.154;9.280;2024-03-29T03:03:28;97778.09;;;10.79;46.17
13080;BME280;6606;49.154;9.280;2024-03-29T03:06:10;97768.88;;;10.83;46.10
13080;BME280;6606;49.154;9.280;2024-03-29T03:08:51;97773.50;;;10.81;46.42
13080;BME280;6606;49.154;9.280;2024-03-29T03:11:50;97770.38;;;10.66;46.69
13080;BME280;6606;49.154;9.280;2024-03-29T03:14:33;97777.63;;;10.74;45.99
13080;BME280;6606;49.154;9.280;2024-03-29T03:17:14;97784.50;;;10.76;46.43
13080;BME280;6606;49.154;9.280;2024-03-29T03:19:56;97780.44;;;10.72;46.26
13080;BME280;6606;49.154;9.280;2024-03-29T03:22:37;97775.59;;;10.77;45.51
13080;BME280;6606;49.154;9.280;2024-03-29T03:25:18;97776.41;;;10.78;45.62
13080;BME280;6606;49.154;9.280;2024-03-29T03:27:59;97762.16;;;10.79;46.29
13080;BME280;6606;49.154;9.280;2024-03-29T03:30:42;97774.75;;;10.77;45.85
13080;BME280;6606;49.154;9.280;2024-03-29T03:33:23;97773.09;;;10.86;46.05
13080;BME280;6606;49.154;9.280;2024-03-29T03:36:06;97792.66;;;10.85;46.40
13080;BME280;6606;49.154;9.280;2024-03-29T03:38:47;97781.00;;;10.76;47.19
13080;BME280;6606;49.154;9.280;2024-03-29T03:41:29;97762.66;;;10.63;46.99
13080;BME280;6606;49.154;9.280;2024-03-29T03:44:10;97825.53;;;10.63;46.73
13080;BME280;6606;49.154;9.280;2024-03-29T03:46:53;97886.34;;;10.54;48.10
13080;BME280;6606;49.154;9.280;2024-03-29T03:49:34;97870.63;;;10.42;49.12
13080;BME280;6606;49.154;9.280;2024-03-29T03:52:15;97815.31;;;10.37;47.89
13080;BME280;6606;49.154;9.280;2024-03-29T03:54:56;97972.28;;;10.42;50.46
13080;BME280;6606;49.154;9.280;2024-03-29T03:57:38;97946.09;;;10.17;52.47
13080;BME280;6606;49.154;9.280;2024-03-29T04:00:20;97895.44;;;10.20;50.19
13080;BME280;6606;49.154;9.280;2024-03-29T04:03:03;97856.25;;;10.44;48.98
13080;BME280;6606;49.154;9.280;2024-03-29T04:05:44;97862.28;;;10.46;48.87
13080;BME280;6606;49.154;9.280;2024-03-29T04:08:26;97868.78;;;10.42;54.60
13080;BME280;6606;49.154;9.280;2024-03-29T04:11:07;97851.72;;;10.35;54.71
13080;BME280;6606;49.154;9.280;2024-03-29T04:13:48;97828.75;;;10.45;50.85
13080;BME280;6606;49.154;9.280;2024-03-29T04:16:30;97817.44;;;10.43;50.86
13080;BME280;6606;49.154;9.280;2024-03-29T04:19:12;97809.00;;;10.38;51.71
13080;BME280;6606;49.154;9.280;2024-03-29T04:21:53;97798.22;;;10.30;52.81
13080;BME280;6606;49.154;9.280;2024-03-29T04:24:34;97787.06;;;10.36;52.04
13080;BME280;6606;49.154;9.280;2024-03-29T04:27:16;97777.50;;;10.24;52.18
13080;BME280;6606;49.154;9.280;2024-03-29T04:29:57;97778.91;;;10.28;51.67
13080;BME280;6606;49.154;9.280;2024-03-29T04:32:38;97764.25;;;10.24;50.92
13080;BME280;6606;49.154;9.280;2024-03-29T04:35:20;97758.72;;;10.15;52.42
13080;BME280;6606;49.154;9.280;2024-03-29T04:38:02;97753.56;;;10.14;53.05
13080;BME280;6606;49.154;9.280;2024-03-29T04:40:44;97751.94;;;10.02;53.58
13080;BME280;6606;49.154;9.280;2024-03-29T04:43:27;97750.66;;;9.96;53.95
13080;BME280;6606;49.154;9.280;2024-03-29T04:46:11;97762.81;;;9.99;54.60
13080;BME280;6606;49.154;9.280;2024-03-29T04:48:53;97762.25;;;9.95;54.07
13080;BME280;6606;49.154;9.280;2024-03-29T04:51:36;97774.19;;;10.10;56.10
13080;BME280;6606;49.154;9.280;2024-03-29T04:54:19;97785.47;;;10.03;57.64
13080;BME280;6606;49.154;9.280;2024-03-29T04:57:02;97787.06;;;9.94;62.27
13080;BME280;6606;49.154;9.280;2024-03-29T04:59:46;97793.13;;;9.85;61.51
13080;BME280;6606;49.154;9.280;2024-03-29T05:02:28;97807.34;;;9.84;60.93
13080;BME280;6606;49.154;9.280;2024-03-29T05:05:10;97800.22;;;9.63;61.52
13080;BME280;6606;49.154;9.280;2024-03-29T05:07:53;97795.19;;;9.49;65.27
13080;BME280;6606;49.154;9.280;2024-03-29T05:10:34;97794.91;;;9.63;65.63
13080;BME280;6606;49.154;9.280;2024-03-29T05:13:16;97791.94;;;9.78;63.19
13080;BME280;6606;49.154;9.280;2024-03-29T05:16:00;97795.81;;;10.06;56.59
13080;BME280;6606;49.154;9.280;2024-03-29T05:18:41;97782.56;;;10.27;57.75
13080;BME280;6606;49.154;9.280;2024-03-29T05:21:23;97760.69;;;10.34;58.54
13080;BME280;6606;49.154;9.280;2024-03-29T05:24:07;97755.97;;;10.17;61.10
13080;BME280;6606;49.154;9.280;2024-03-29T05:26:48;97745.88;;;10.11;63.25
13080;BME280;6606;49.154;9.280;2024-03-29T05:29:30;97734.81;;;9.85;67.85
13080;BME280;6606;49.154;9.280;2024-03-29T05:32:12;97736.75;;;9.83;63.12
13080;BME280;6606;49.154;9.280;2024-03-29T05:34:53;97736.94;;;9.91;61.01
13080;BME280;6606;49.154;9.280;2024-03-29T05:37:35;97746.53;;;10.03;58.81
13080;BME280;6606;49.154;9.280;2024-03-29T05:40:18;97732.00;;;10.07;57.65
13080;BME280;6606;49.154;9.280;2024-03-29T05:43:05;97730.63;;;10.34;52.85
13080;BME280;6606;49.154;9.280;2024-03-29T05:45:47;97722.38;;;10.58;50.10
13080;BME280;6606;49.154;9.280;2024-03-29T05:48:33;97742.16;;;10.75;55.19
13080;BME280;6606;49.154;9.280;2024-03-29T05:51:15;97728.47;;;10.70;59.22
13080;BME280;6606;49.154;9.280;2024-03-29T05:53:57;97748.03;;;10.69;61.83
13080;BME280;6606;49.154;9.280;2024-03-29T05:56:40;97752.03;;;10.63;62.94
13080;BME280;6606;49.154;9.280;2024-03-29T05:59:22;97736.97;;;10.64;65.99
13080;BME280;6606;49.154;9.280;2024-03-29T06:02:04;97736.25;;;10.62;68.02
13080;BME280;6606;49.154;9.280;2024-03-29T06:04:46;97750.91;;;10.66;72.00
13080;BME280;6606;49.154;9.280;2024-03-29T06:07:28;97759.22;;;10.51;77.51
13080;BME280;6606;49.154;9.280;2024-03-29T06:10:11;97783.50;;;10.26;81.34
13080;BME280;6606;49.154;9.280;2024-03-29T06:12:56;97775.69;;;10.03;85.91
13080;BME280;6606;49.154;9.280;2024-03-29T06:15:39;97788.69;;;10.06;79.23
13080;BME280;6606;49.154;9.280;2024-03-29T06:18:38;97752.13;;;10.31;65.02
13080;BME280;6606;49.154;9.280;2024-03-29T06:21:20;97774.59;;;10.27;71.32
13080;BME280;6606;49.154;9.280;2024-03-29T06:24:02;97779.00;;;10.38;66.25
13080;BME280;6606;49.154;9.280;2024-03-29T06:26:43;97794.38;;;10.23;67.79
13080;BME280;6606;49.154;9.280;2024-03-29T06:29:26;97789.00;;;10.34;68.22
13080;BME280;6606;49.154;9.280;2024-03-29T06:32:08;97791.28;;;10.39;67.14
13080;BME280;6606;49.154;9.280;2024-03-29T06:34:50;97786.41;;;10.44;71.08
13080;BME280;6606;49.154;9.280;2024-03-29T06:37:32;97783.94;;;10.52;73.45
13080;BME280;6606;49.154;9.280;2024-03-29T06:40:13;97780.19;;;10.54;70.85
13080;BME280;6606;49.154;9.280;2024-03-29T06:42:55;97794.72;;;10.50;73.49
13080;BME280;6606;49.154;9.280;2024-03-29T06:45:41;97790.09;;;10.52;72.08
13080;BME280;6606;49.154;9.280;2024-03-29T06:48:23;97795.38;;;10.64;73.16
13080;BME280;6606;49.154;9.280;2024-03-29T06:51:05;97816.84;;;10.61;77.29
13080;BME280;6606;49.154;9.280;2024-03-29T06:53:46;97812.53;;;10.60;75.13
13080;BME280;6606;49.154;9.280;2024-03-29T06:56:28;97796.22;;;10.74;68.00
13080;BME280;6606;49.154;9.280;2024-03-29T06:59:10;97794.00;;;10.69;68.77
13080;BME280;6606;49.154;9.280;2024-03-29T07:01:53;97800.75;;;10.83;79.29
13080;BME280;6606;49.154;9.280;2024-03-29T07:04:35;97801.25;;;10.67;76.26
13080;BME280;6606;49.154;9.280;2024-03-29T07:07:17;97790.69;;;10.77;72.79
13080;BME280;6606;49.154;9.280;2024-03-29T07:09:59;97790.69;;;10.77;78.26
13080;BME280;6606;49.154;9.280;2024-03-29T07:12:40;97790.81;;;11.16;77.85
13080;BME280;6606;49.154;9.280;2024-03-29T07:15:22;97785.13;;;11.30;74.61
13080;BME280;6606;49.154;9.280;2024-03-29T07:18:06;97768.31;;;11.20;73.49
13080;BME280;6606;49.154;9.280;2024-03-29T07:20:48;97760.38;;;11.30;76.87
13080;BME280;6606;49.154;9.280;2024-03-29T07:23:31;97748.09;;;11.77;74.78
13080;BME280;6606;49.154;9.280;2024-03-29T07:26:12;97765.44;;;11.91;74.99
13080;BME280;6606;49.154;9.280;2024-03-29T07:28:54;97776.06;;;11.81;76.24
13080;BME280;6606;49.154;9.280;2024-03-29T07:31:36;97774.81;;;11.85;73.37
13080;BME280;6606;49.154;9.280;2024-03-29T07:34:19;97772.41;;;11.82;73.97
13080;BME280;6606;49.154;9.280;2024-03-29T07:37:01;97781.38;;;11.81;76.52
13080;BME280;6606;49.154;9.280;2024-03-29T07:39:42;97792.16;;;11.70;79.37
13080;BME280;6606;49.154;9.280;2024-03-29T07:42:24;97794.22;;;11.47;81.60
13080;BME280;6606;49.154;9.280;2024-03-29T07:45:07;97793.41;;;11.46;77.04
13080;BME280;6606;49.154;9.280;2024-03-29T07:47:49;97792.94;;;11.32;82.41
13080;BME280;6606;49.154;9.280;2024-03-29T07:50:34;97798.56;;;11.38;88.98
13080;BME280;6606;49.154;9.280;2024-03-29T07:53:17;97819.25;;;10.94;93.19
13080;BME280;6606;49.154;9.280;2024-03-29T07:55:59;97809.16;;;10.88;92.87
13080;BME280;6606;49.154;9.280;2024-03-29T07:58:41;97806.69;;;10.96;77.17
13080;BME280;6606;49.154;9.280;2024-03-29T08:01:24;97822.69;;;11.16;91.93
13080;BME280;6606;49.154;9.280;2024-03-29T08:04:06;97843.94;;;11.16;100.00
13080;BME280;6606;49.154;9.280;2024-03-29T08:06:51;97852.91;;;11.15;94.86
13080;BME280;6606;49.154;9.280;2024-03-29T08:09:33;97853.78;;;11.25;94.60
13080;BME280;6606;49.154;9.280;2024-03-29T08:12:15;97843.59;;;11.40;100.00
13080;BME280;6606;49.154;9.280;2024-03-29T08:14:56;97846.25;;;11.40;100.00
13080;BME280;6606;49.154;9.280;2024-03-29T08:17:38;97859.88;;;11.16;100.00
13080;BME280;6606;49.154;9.280;2024-03-29T08:20:20;97874.38;;;11.02;100.00
13080;BME280;6606;49.154;9.280;2024-03-29T08:23:05;97885.47;;;10.86;100.00
13080;BME280;6606;49.154;9.280;2024-03-29T08:25:47;97886.00;;;10.80;100.00
13080;BME280;6606;49.154;9.280;2024-03-29T08:28:29;97876.47;;;10.77;100.00
13080;BME280;6606;49.154;9.280;2024-03-29T08:31:10;97882.50;;;10.58;100.00
13080;BME280;6606;49.154;9.280;2024-03-29T08:33:52;97894.13;;;10.46;100.00
13080;BME280;6606;49.154;9.280;2024-03-29T08:36:34;97924.53;;;10.42;100.00
13080;BME280;6606;49.154;9.280;2024-03-29T08:39:17;97931.28;;;10.46;100.00
13080;BME280;6606;49.154;9.280;2024-03-29T08:41:58;97957.97;;;10.01;100.00
13080;BME280;6606;49.154;9.280;2024-03-29T08:44:40;97981.88;;;9.79;100.00
13080;BME280;6606;49.154;9.280;2024-03-29T08:47:22;97970.53;;;9.65;100.00
13080;BME280;6606;49.154;9.280;2024-03-29T08:50:04;97968.41;;;9.48;100.00
13080;BME280;6606;49.154;9.280;2024-03-29T08:52:46;97966.34;;;9.29;100.00
13080;BME280;6606;49.154;9.280;2024-03-29T08:55:29;97980.41;;;9.41;100.00
13080;BME280;6606;49.154;9.280;2024-03-29T08:58:10;97983.06;;;9.30;100.00
13080;BME280;6606;49.154;9.280;2024-03-29T09:00:53;97982.34;;;9.27;100.00
13080;BME280;6606;49.154;9.280;2024-03-29T09:03:35;97979.22;;;9.34;100.00
13080;BME280;6606;49.154;9.280;2024-03-29T09:06:17;97984.63;;;9.43;100.00
13080;BME280;6606;49.154;9.280;2024-03-29T09:08:59;97983.56;;;9.46;100.00
13080;BME280;6606;49.154;9.280;2024-03-29T09:11:42;97991.50;;;9.35;100.00
13080;BME280;6606;49.154;9.280;2024-03-29T09:14:23;97989.09;;;9.43;100.00
13080;BME280;6606;49.154;9.280;2024-03-29T09:17:05;97994.63;;;9.62;100.00
13080;BME280;6606;49.154;9.280;2024-03-29T09:19:49;98000.16;;;9.93;100.00
13080;BME280;6606;49.154;9.280;2024-03-29T09:22:31;97998.25;;;9.95;100.00
13080;BME280;6606;49.154;9.280;2024-03-29T09:25:13;98003.50;;;10.18;100.00
13080;BME280;6606;49.154;9.280;2024-03-29T09:27:57;98008.25;;;10.46;100.00
13080;BME280;6606;49.154;9.280;2024-03-29T09:30:38;98007.97;;;10.61;100.00
13080;BME280;6606;49.154;9.280;2024-03-29T09:33:20;97992.78;;;10.84;100.00
13080;BME280;6606;49.154;9.280;2024-03-29T09:36:02;97993.13;;;11.32;100.00
13080;BME280;6606;49.154;9.280;2024-03-29T09:38:45;97986.25;;;11.60;100.00
13080;BME280;6606;49.154;9.280;2024-03-29T09:41:27;97986.56;;;11.67;100.00
13080;BME280;6606;49.154;9.280;2024-03-29T09:44:11;97982.66;;;11.40;100.00
13080;BME280;6606;49.154;9.280;2024-03-29T09:46:53;97976.63;;;11.38;100.00
13080;BME280;6606;49.154;9.280;2024-03-29T09:49:35;97986.28;;;11.09;100.00
13080;BME280;6606;49.154;9.280;2024-03-29T09:52:20;97981.91;;;11.08;100.00
13080;BME280;6606;49.154;9.280;2024-03-29T09:55:02;97972.91;;;11.20;100.00
13080;BME280;6606;49.154;9.280;2024-03-29T09:57:44;97964.47;;;11.15;100.00
13080;BME280;6606;49.154;9.280;2024-03-29T10:00:27;97954.66;;;11.36;100.00
13080;BME280;6606;49.154;9.280;2024-03-29T10:03:09;97946.41;;;11.39;100.00
13080;BME280;6606;49.154;9.280;2024-03-29T10:05:51;97932.84;;;11.42;100.00
13080;BME280;6606;49.154;9.280;2024-03-29T10:08:34;97921.50;;;11.31;100.00
13080;BME280;6606;49.154;9.280;2024-03-29T10:11:16;97919.50;;;11.54;100.00
13080;BME280;6606;49.154;9.280;2024-03-29T10:13:59;97917.59;;;11.75;100.00
13080;BME280;6606;49.154;9.280;2024-03-29T10:16:42;97922.72;;;12.07;100.00
13080;BME280;6606;49.154;9.280;2024-03-29T10:19:24;97925.94;;;12.11;100.00
13080;BME280;6606;49.154;9.280;2024-03-29T10:22:06;97923.34;;;11.80;100.00
13080;BME280;6606;49.154;9.280;2024-03-29T10:24:48;97929.19;;;11.74;100.00
13080;BME280;6606;49.154;9.280;2024-03-29T10:27:29;97918.63;;;11.53;100.00
13080;BME280;6606;49.154;9.280;2024-03-29T10:30:12;97924.22;;;11.90;100.00
13080;BME280;6606;49.154;9.280;2024-03-29T10:32:58;97916.19;;;11.81;100.00
13080;BME280;6606;49.154;9.280;2024-03-29T10:35:41;97905.31;;;11.94;100.00
13080;BME280;6606;49.154;9.280;2024-03-29T10:38:24;97903.97;;;11.59;100.00
13080;BME280;6606;49.154;9.280;2024-03-29T10:41:07;97913.19;;;11.55;100.00
13080;BME280;6606;49.154;9.280;2024-03-29T10:43:49;97920.81;;;11.38;100.00
13080;BME280;6606;49.154;9.280;2024-03-29T10:46:34;97932.25;;;11.29;100.00
13080;BME280;6606;49.154;9.280;2024-03-29T10:49:18;97927.19;;;11.66;100.00
13080;BME280;6606;49.154;9.280;2024-03-29T10:52:00;97925.78;;;12.03;100.00
13080;BME280;6606;49.154;9.280;2024-03-29T10:54:44;97916.16;;;12.31;100.00
13080;BME280;6606;49.154;9.280;2024-03-29T10:57:27;97907.47;;;12.39;100.00
13080;BME280;6606;49.154;9.280;2024-03-29T11:00:12;97906.34;;;12.31;100.00
13080;BME280;6606;49.154;9.280;2024-03-29T11:02:57;97902.25;;;12.66;100.00
13080;BME280;6606;49.154;9.280;2024-03-29T11:05:47;97892.72;;;12.73;100.00
13080;BME280;6606;49.154;9.280;2024-03-29T11:08:31;97884.59;;;13.22;100.00
13080;BME280;6606;49.154;9.280;2024-03-29T11:11:15;97883.88;;;13.85;100.00
13080;BME280;6606;49.154;9.280;2024-03-29T11:14:02;97870.16;;;13.25;100.00
13080;BME280;6606;49.154;9.280;2024-03-29T11:16:45;97867.66;;;13.78;100.00
13080;BME280;6606;49.154;9.280;2024-03-29T11:19:29;97872.44;;;13.47;100.00
13080;BME280;6606;49.154;9.280;2024-03-29T11:22:12;97870.97;;;13.35;100.00
13080;BME280;6606;49.154;9.280;2024-03-29T11:24:54;97874.41;;;13.45;100.00
13080;BME280;6606;49.154;9.280;2024-03-29T11:27:36;97880.56;;;13.55;100.00
13080;BME280;6606;49.154;9.280;2024-03-29T11:30:18;97884.69;;;13.40;100.00
13080;BME280;6606;49.154;9.280;2024-03-29T11:33:00;97884.97;;;13.64;100.00
13080;BME280;6606;49.154;9.280;2024-03-29T11:35:42;97880.44;;;13.75;100.00
13080;BME280;6606;49.154;9.280;2024-03-29T11:38:35;97884.97;;;13.92;100.00
13080;BME280;6606;49.154;9.280;2024-03-29T11:41:18;97871.34;;;13.68;100.00
13080;BME280;6606;49.154;9.280;2024-03-29T11:44:02;97865.22;;;13.30;100.00
13080;BME280;6606;49.154;9.280;2024-03-29T11:46:44;97860.75;;;13.20;100.00
13080;BME280;6606;49.154;9.280;2024-03-29T11:49:26;97859.75;;;13.59;100.00
13080;BME280;6606;49.154;9.280;2024-03-29T11:52:09;97864.16;;;14.14;100.00
13080;BME280;6606;49.154;9.280;2024-03-29T11:54:53;97866.28;;;14.28;100.00
13080;BME280;6606;49.154;9.280;2024-03-29T11:57:35;97867.97;;;14.11;100.00
13080;BME280;6606;49.154;9.280;2024-03-29T12:00:20;97863.72;;;13.73;100.00
13080;BME280;6606;49.154;9.280;2024-03-29T12:03:07;97868.22;;;13.72;100.00
13080;BME280;6606;49.154;9.280;2024-03-29T12:05:50;97866.22;;;13.84;100.00
13080;BME280;6606;49.154;9.280;2024-03-29T12:08:34;97870.31;;;13.78;100.00
13080;BME280;6606;49.154;9.280;2024-03-29T12:11:17;97876.97;;;13.92;100.00
13080;BME280;6606;49.154;9.280;2024-03-29T12:13:58;97884.28;;;13.90;100.00
13080;BME280;6606;49.154;9.280;2024-03-29T12:16:44;97884.88;;;13.84;100.00
13080;BME280;6606;49.154;9.280;2024-03-29T12:19:26;97885.69;;;13.67;100.00
13080;BME280;6606;49.154;9.280;2024-03-29T12:22:08;97885.28;;;13.61;100.00
13080;BME280;6606;49.154;9.280;2024-03-29T12:24:50;97885.63;;;13.49;100.00
13080;BME280;6606;49.154;9.280;2024-03-29T12:27:33;97889.28;;;13.48;100.00
13080;BME280;6606;49.154;9.280;2024-03-29T12:30:15;97902.19;;;13.52;100.00
13080;BME280;6606;49.154;9.280;2024-03-29T12:33:01;97905.06;;;13.69;100.00
13080;BME280;6606;49.154;9.280;2024-03-29T12:35:44;97917.19;;;13.81;100.00
13080;BME280;6606;49.154;9.280;2024-03-29T12:38:25;97915.59;;;13.88;100.00
13080;BME280;6606;49.154;9.280;2024-03-29T12:41:08;97928.34;;;14.40;100.00
13080;BME280;6606;49.154;9.280;2024-03-29T12:43:52;97933.16;;;14.72;100.00
13080;BME280;6606;49.154;9.280;2024-03-29T12:46:33;97929.72;;;15.06;100.00
13080;BME280;6606;49.154;9.280;2024-03-29T12:49:15;97938.94;;;15.11;100.00
13080;BME280;6606;49.154;9.280;2024-03-29T12:51:57;97949.13;;;15.60;100.00
13080;BME280;6606;49.154;9.280;2024-03-29T12:54:40;97963.91;;;15.46;100.00
13080;BME280;6606;49.154;9.280;2024-03-29T12:57:22;97979.91;;;15.38;100.00
13080;BME280;6606;49.154;9.280;2024-03-29T13:00:06;97942.41;;;15.30;100.00
13080;BME280;6606;49.154;9.280;2024-03-29T13:02:49;97930.06;;;14.85;100.00
13080;BME280;6606;49.154;9.280;2024-03-29T13:05:31;97913.97;;;14.23;100.00
13080;BME280;6606;49.154;9.280;2024-03-29T13:08:15;97924.31;;;14.53;100.00
13080;BME280;6606;49.154;9.280;2024-03-29T13:10:57;97930.53;;;14.80;100.00
13080;BME280;6606;49.154;9.280;2024-03-29T13:13:38;97933.63;;;14.93;100.00
13080;BME280;6606;49.154;9.280;2024-03-29T13:16:21;97933.53;;;14.77;100.00
13080;BME280;6606;49.154;9.280;2024-03-29T13:19:03;97951.16;;;14.70;100.00
13080;BME280;6606;49.154;9.280;2024-03-29T13:21:45;97942.63;;;14.48;100.00
13080;BME280;6606;49.154;9.280;2024-03-29T13:24:27;97939.78;;;14.32;100.00
13080;BME280;6606;49.154;9.280;2024-03-29T13:27:09;97934.84;;;13.92;100.00
13080;BME280;6606;49.154;9.280;2024-03-29T13:29:50;97905.94;;;13.59;100.00
13080;BME280;6606;49.154;9.280;2024-03-29T13:32:34;97897.34;;;13.65;100.00
13080;BME280;6606;49.154;9.280;2024-03-29T13:35:23;97883.78;;;13.77;100.00
13080;BME280;6606;49.154;9.280;2024-03-29T13:38:10;97884.34;;;13.53;100.00
13080;BME280;6606;49.154;9.280;2024-03-29T13:40:53;97886.97;;;13.62;100.00
13080;BME280;6606;49.154;9.280;2024-03-29T13:43:38;97861.94;;;13.73;100.00
13080;BME280;6606;49.154;9.280;2024-03-29T13:46:23;97871.94;;;13.89;100.00
13080;BME280;6606;49.154;9.280;2024-03-29T13:49:08;97867.66;;;14.32;100.00
13080;BME280;6606;49.154;9.280;2024-03-29T13:51:52;97870.81;;;15.50;100.00
13080;BME280;6606;49.154;9.280;2024-03-29T13:54:35;97876.19;;;16.17;100.00
13080;BME280;6606;49.154;9.280;2024-03-29T13:57:20;97883.19;;;16.01;100.00
13080;BME280;6606;49.154;9.280;2024-03-29T14:00:06;97890.03;;;15.96;100.00
13080;BME280;6606;49.154;9.280;2024-03-29T14:02:49;97879.38;;;16.45;100.00
13080;BME280;6606;49.154;9.280;2024-03-29T14:05:37;97871.91;;;16.57;100.00
13080;BME280;6606;49.154;9.280;2024-03-29T14:08:19;97879.25;;;16.71;100.00
13080;BME280;6606;49.154;9.280;2024-03-29T14:11:02;97895.44;;;16.28;100.00
13080;BME280;6606;49.154;9.280;2024-03-29T14:13:47;97897.16;;;16.46;100.00
13080;BME280;6606;49.154;9.280;2024-03-29T14:16:36;97895.31;;;16.30;100.00
13080;BME280;6606;49.154;9.280;2024-03-29T14:19:19;97902.47;;;16.29;100.00
13080;BME280;6606;49.154;9.280;2024-03-29T14:22:04;97917.63;;;16.55;100.00
13080;BME280;6606;49.154;9.280;2024-03-29T14:24:47;97914.94;;;16.71;100.00
13080;BME280;6606;49.154;9.280;2024-03-29T14:27:30;97894.50;;;15.79;100.00